Lowell, Ohio
Current Conditions -  °F | °C
As of 2:53 PM on Friday 31 Oct 2014 (Local Time) from KPKB Reporting Station
Light Rain Light Rain  
Wind Chill: 46°   Ceiling: 1600
Heat Index: 46°   Visibility: 10mi
Dew Point: 39°   Wind: 3mph
Humidity: 76%   Direction: 140°SE
Pressure: 29.9"   Gusts: NA
Location:  39.53°N, 81.51°W
Report Text: KPKB 311853Z 14003KT 10SM -RA BKN016 BKN027 OVC042 08/04 A2990 RMK AO2 SLP126 P0000 T00780039
Loading
Personal Weather Stations






























Interactive Weather Map
Tropical Storm Tracking
New forecast layout! Learn more

10-Day Weather Forecast

Advertisements
Track Severe Weather on mobile